createdAt,value
2018-12-02T00:01:53.243Z,75.85
2018-12-02T00:04:21.569Z,75.81
2018-12-02T00:06:49.917Z,75.86
2018-12-02T00:09:18.262Z,75.93
2018-12-02T00:11:46.637Z,76.10
2018-12-02T00:14:15.196Z,76.21
2018-12-02T00:16:43.898Z,76.06
2018-12-02T00:19:12.244Z,76.08
2018-12-02T00:21:40.595Z,76.11
2018-12-02T00:24:08.957Z,76.06
2018-12-02T00:26:37.327Z,75.81
2018-12-02T00:29:05.679Z,75.68
2018-12-02T00:31:34.015Z,75.78
2018-12-02T00:34:02.354Z,75.72
2018-12-02T00:36:30.691Z,75.92
2018-12-02T00:38:59.054Z,76.17
2018-12-02T00:41:27.382Z,76.37
2018-12-02T00:43:55.703Z,76.47
2018-12-02T00:46:24.442Z,76.59
2018-12-02T00:48:53.377Z,76.63
2018-12-02T00:51:21.751Z,76.59
2018-12-02T00:53:50.079Z,76.55
2018-12-02T00:56:17.902Z,76.73
2018-12-02T00:58:46.234Z,76.90
2018-12-02T01:01:14.667Z,76.75
2018-12-02T01:03:43.008Z,76.72
2018-12-02T01:06:11.326Z,76.71
2018-12-02T01:08:39.667Z,76.81
2018-12-02T01:11:08.030Z,77.17
2018-12-02T01:13:36.367Z,77.25
2018-12-02T01:16:04.696Z,77.29
2018-12-02T01:18:33.272Z,77.37
2018-12-02T01:21:01.389Z,77.39
2018-12-02T01:23:29.729Z,77.40
2018-12-02T01:25:58.420Z,77.39
2018-12-02T01:28:26.761Z,77.32
2018-12-02T01:30:55.169Z,77.25
2018-12-02T01:33:23.542Z,77.19
2018-12-02T01:35:51.895Z,77.12
2018-12-02T01:38:20.234Z,77.11
2018-12-02T01:40:48.614Z,77.33
2018-12-02T01:43:16.901Z,77.26
2018-12-02T01:45:45.242Z,77.35
2018-12-02T01:48:13.576Z,77.60
2018-12-02T01:50:41.921Z,77.65
2018-12-02T01:53:10.245Z,77.67
2018-12-02T01:55:38.614Z,77.75
2018-12-02T01:58:06.966Z,77.66
2018-12-02T02:00:35.317Z,77.66
2018-12-02T02:03:03.709Z,77.27
2018-12-02T02:05:32.043Z,77.54
2018-12-02T02:08:00.372Z,77.73
2018-12-02T02:10:28.704Z,77.57
2018-12-02T02:12:57.046Z,77.58
2018-12-02T02:15:25.381Z,77.60
2018-12-02T02:17:53.718Z,77.61
2018-12-02T02:20:22.055Z,77.60
2018-12-02T02:22:50.394Z,77.63
2018-12-02T02:25:18.741Z,77.73
2018-12-02T02:27:47.094Z,77.87
2018-12-02T02:30:15.426Z,77.77
2018-12-02T02:32:43.772Z,77.75
2018-12-02T02:35:12.135Z,77.61
2018-12-02T02:37:40.520Z,77.82
2018-12-02T02:40:08.885Z,77.88
2018-12-02T02:42:37.737Z,77.76
2018-12-02T02:45:05.852Z,77.77
2018-12-02T02:47:34.189Z,77.66
2018-12-02T02:50:02.524Z,77.53
2018-12-02T02:52:30.929Z,77.40
2018-12-02T02:54:59.277Z,77.62
2018-12-02T02:57:27.615Z,77.70
2018-12-02T02:59:55.956Z,77.78
2018-12-02T03:02:24.294Z,77.59
2018-12-02T03:04:52.660Z,77.68
2018-12-02T03:07:21.008Z,77.89
2018-12-02T03:09:49.348Z,77.86
2018-12-02T03:12:17.679Z,77.96
2018-12-02T03:14:46.016Z,77.79
2018-12-02T03:17:14.360Z,77.68
2018-12-02T03:19:42.697Z,77.71
2018-12-02T03:22:11.037Z,77.65
2018-12-02T03:24:39.367Z,77.79
2018-12-02T03:27:07.728Z,77.99
2018-12-02T03:29:36.068Z,77.93
2018-12-02T03:32:04.435Z,77.83
2018-12-02T03:34:32.760Z,77.91
2018-12-02T03:37:01.114Z,77.95
2018-12-02T03:39:29.470Z,78.41
2018-12-02T03:41:57.797Z,78.72
2018-12-02T03:44:26.151Z,78.65
2018-12-02T03:46:54.495Z,78.56
2018-12-02T03:49:22.848Z,78.49
2018-12-02T03:51:51.226Z,78.28
2018-12-02T03:54:19.571Z,78.01
2018-12-02T03:56:47.918Z,77.70
2018-12-02T03:59:16.566Z,77.52
2018-12-02T04:01:45.131Z,77.69
2018-12-02T04:04:13.246Z,77.81
2018-12-02T04:06:41.643Z,77.78
2018-12-02T04:09:10.014Z,77.99
2018-12-02T04:11:38.356Z,78.12
2018-12-02T04:14:06.693Z,78.14
2018-12-02T04:16:35.021Z,78.20
2018-12-02T04:19:03.368Z,78.27
2018-12-02T04:21:31.704Z,78.29
2018-12-02T04:24:00.031Z,78.14
2018-12-02T04:26:28.375Z,78.05
2018-12-02T04:28:56.705Z,77.97
2018-12-02T04:31:25.043Z,77.96
2018-12-02T04:33:53.380Z,78.00
2018-12-02T04:36:21.726Z,77.89
2018-12-02T04:38:50.063Z,77.88
2018-12-02T04:41:18.398Z,77.95
2018-12-02T04:43:46.742Z,78.01
2018-12-02T04:46:15.072Z,78.17
2018-12-02T04:48:43.425Z,78.10
2018-12-02T04:51:11.764Z,78.38
2018-12-02T04:53:40.105Z,78.41
2018-12-02T04:56:08.459Z,78.43
2018-12-02T04:58:36.802Z,78.46
2018-12-02T05:01:05.146Z,78.46
2018-12-02T05:03:33.503Z,78.45
2018-12-02T05:06:01.867Z,78.35
2018-12-02T05:08:30.243Z,78.26
2018-12-02T05:10:58.589Z,78.22
2018-12-02T05:13:26.927Z,78.25
2018-12-02T05:15:55.278Z,78.23
2018-12-02T05:18:23.617Z,78.30
2018-12-02T05:20:51.972Z,78.32
2018-12-02T05:23:20.314Z,78.34
2018-12-02T05:25:48.695Z,78.21
2018-12-02T05:28:17.042Z,78.26
2018-12-02T05:30:45.387Z,78.19
2018-12-02T05:33:13.723Z,78.26
2018-12-02T05:35:42.291Z,78.31
2018-12-02T05:38:10.416Z,78.34
2018-12-02T05:40:38.772Z,78.62
2018-12-02T05:43:07.108Z,78.71
2018-12-02T05:45:35.455Z,78.72
2018-12-02T05:48:03.784Z,78.97
2018-12-02T05:50:32.124Z,79.00
2018-12-02T05:53:00.465Z,79.00
2018-12-02T05:55:28.816Z,79.03
2018-12-02T05:57:57.144Z,79.14
2018-12-02T06:00:25.512Z,78.89
2018-12-02T06:02:53.885Z,78.92
2018-12-02T06:05:22.236Z,78.97
2018-12-02T06:07:50.574Z,79.27
2018-12-02T06:10:19.100Z,79.19
2018-12-02T06:12:47.452Z,78.87
2018-12-02T06:15:15.792Z,79.20
2018-12-02T06:17:44.136Z,79.25
2018-12-02T06:20:12.470Z,79.25
2018-12-02T06:22:40.842Z,78.84
2018-12-02T06:25:09.215Z,78.97
2018-12-02T06:27:37.556Z,79.30
2018-12-02T06:30:05.902Z,79.37
2018-12-02T06:32:34.241Z,79.39
2018-12-02T06:35:02.579Z,79.38
2018-12-02T06:37:30.929Z,79.29
2018-12-02T06:39:59.279Z,79.33
2018-12-02T06:42:27.641Z,79.23
2018-12-02T06:44:55.984Z,79.39
2018-12-02T06:47:24.329Z,79.48
2018-12-02T06:49:52.677Z,79.52
2018-12-02T06:52:21.036Z,79.70
2018-12-02T06:54:49.403Z,79.53
2018-12-02T06:57:17.737Z,79.61
2018-12-02T06:59:46.104Z,79.87
2018-12-02T07:02:14.443Z,79.70
2018-12-02T07:04:42.786Z,79.89
2018-12-02T07:07:11.148Z,79.88
2018-12-02T07:09:39.503Z,79.93
2018-12-02T07:12:08.135Z,80.06
2018-12-02T07:14:36.465Z,80.68
2018-12-02T07:17:04.816Z,80.72
2018-12-02T07:19:33.166Z,80.89
2018-12-02T07:22:01.515Z,80.83
2018-12-02T07:24:29.858Z,80.64
2018-12-02T07:26:58.226Z,80.66
2018-12-02T07:29:26.570Z,80.68
2018-12-02T07:31:54.911Z,80.81
2018-12-02T07:34:23.272Z,80.72
2018-12-02T07:36:51.616Z,80.82
2018-12-02T07:39:20.162Z,80.85
2018-12-02T07:41:49.994Z,81.12
2018-12-02T07:44:18.293Z,81.42
2018-12-02T07:46:46.634Z,81.38
2018-12-02T07:49:15.000Z,81.14
2018-12-02T07:51:43.318Z,81.15
2018-12-02T07:54:11.657Z,81.12
2018-12-02T07:56:40.010Z,81.23
2018-12-02T07:59:08.395Z,81.38
2018-12-02T08:01:36.973Z,81.45
2018-12-02T08:04:05.315Z,81.50
2018-12-02T08:06:33.891Z,81.48
2018-12-02T08:09:02.009Z,81.40
2018-12-02T08:11:30.332Z,81.46
2018-12-02T08:13:58.705Z,81.35
2018-12-02T08:16:27.903Z,81.30
2018-12-02T08:18:56.235Z,81.22
2018-12-02T08:21:24.562Z,81.16
2018-12-02T08:23:52.906Z,81.13
2018-12-02T08:26:28.229Z,80.99
2018-12-02T08:28:58.647Z,80.87
2018-12-02T08:31:27.025Z,80.74
2018-12-02T08:33:55.371Z,80.71
2018-12-02T08:36:23.748Z,80.91
2018-12-02T08:38:52.102Z,80.79
2018-12-02T08:41:20.433Z,80.74
2018-12-02T08:43:48.774Z,80.67
2018-12-02T08:46:17.356Z,80.79
2018-12-02T08:48:45.464Z,80.85
2018-12-02T08:51:13.803Z,80.98
2018-12-02T08:53:42.389Z,80.91
2018-12-02T08:56:11.007Z,80.85
2018-12-02T08:58:39.352Z,80.63
2018-12-02T09:01:07.705Z,80.59
2018-12-02T09:03:36.428Z,80.40
2018-12-02T09:06:05.170Z,80.04
2018-12-02T09:08:35.039Z,79.46
2018-12-02T09:11:03.438Z,79.14
2018-12-02T09:13:31.840Z,78.73
2018-12-02T09:16:00.733Z,78.35
2018-12-02T09:18:29.082Z,77.95
2018-12-02T09:20:57.466Z,77.73
2018-12-02T09:23:25.790Z,77.56
2018-12-02T09:25:54.366Z,77.23
2018-12-02T09:28:22.488Z,76.98
2018-12-02T09:30:50.856Z,76.98
2018-12-02T09:33:19.498Z,77.00
2018-12-02T09:35:47.829Z,76.91
2018-12-02T09:38:16.159Z,76.95
2018-12-02T09:40:44.492Z,76.55
2018-12-02T09:43:12.834Z,76.34
2018-12-02T09:45:41.190Z,76.29
2018-12-02T09:48:09.536Z,76.27
2018-12-02T09:50:38.667Z,76.38
2018-12-02T09:53:07.318Z,76.43
2018-12-02T09:55:35.685Z,76.57
2018-12-02T09:58:04.038Z,76.72
2018-12-02T10:00:34.365Z,76.81
2018-12-02T10:03:00.703Z,76.94
2018-12-02T10:05:29.035Z,77.11
2018-12-02T10:07:57.378Z,77.15
2018-12-02T10:10:25.721Z,77.25
2018-12-02T10:12:54.067Z,77.30
2018-12-02T10:15:22.399Z,77.46
2018-12-02T10:17:50.870Z,77.49
2018-12-02T10:20:19.249Z,77.59
2018-12-02T10:22:47.873Z,77.61
2018-12-02T10:25:16.206Z,77.56
2018-12-02T10:27:44.542Z,77.58
2018-12-02T10:30:12.876Z,77.63
2018-12-02T10:32:41.218Z,77.57
2018-12-02T10:35:09.563Z,77.53
2018-12-02T10:37:37.948Z,77.51
2018-12-02T10:40:06.292Z,77.47
2018-12-02T10:42:34.647Z,77.27
2018-12-02T10:45:03.020Z,77.20
2018-12-02T10:47:31.366Z,77.10
2018-12-02T10:50:00.175Z,77.07
2018-12-02T10:52:28.511Z,77.03
2018-12-02T10:54:56.866Z,77.07
2018-12-02T10:57:25.204Z,76.96
2018-12-02T10:59:53.538Z,76.93
2018-12-02T11:02:21.874Z,76.82
2018-12-02T11:04:50.210Z,76.67
2018-12-02T11:07:18.560Z,76.80
2018-12-02T11:09:46.902Z,76.77
2018-12-02T11:12:15.238Z,76.65
2018-12-02T11:14:43.592Z,76.15
2018-12-02T11:17:11.935Z,76.11
2018-12-02T11:19:40.360Z,75.85
2018-12-02T11:22:08.722Z,75.68
2018-12-02T11:24:37.076Z,75.50
2018-12-02T11:27:05.422Z,75.39
2018-12-02T11:29:33.776Z,75.39
2018-12-02T11:32:02.175Z,75.30
2018-12-02T11:34:30.521Z,75.36
2018-12-02T11:36:58.924Z,75.51
2018-12-02T11:39:27.388Z,74.92
2018-12-02T11:41:55.764Z,74.83
2018-12-02T11:44:24.329Z,74.58
2018-12-02T11:46:52.712Z,74.59
2018-12-02T11:49:21.079Z,74.28
2018-12-02T11:51:49.429Z,74.13
2018-12-02T11:54:18.810Z,73.85
2018-12-02T11:56:47.268Z,73.81
2018-12-02T11:59:15.614Z,73.67
2018-12-02T12:01:44.095Z,72.69
2018-12-02T12:04:12.448Z,72.35
2018-12-02T12:06:40.979Z,72.29
2018-12-02T12:09:09.320Z,71.48
2018-12-02T12:11:37.695Z,71.19
2018-12-02T12:14:06.042Z,70.97
2018-12-02T12:16:34.435Z,70.74
2018-12-02T12:19:02.803Z,70.72
2018-12-02T12:21:31.203Z,70.44
2018-12-02T12:23:59.551Z,70.13
2018-12-02T12:26:28.017Z,70.36
2018-12-02T12:28:56.378Z,70.19
2018-12-02T12:31:24.739Z,70.23
2018-12-02T12:33:53.115Z,69.87
2018-12-02T12:36:21.480Z,69.79
2018-12-02T12:38:49.815Z,69.76
2018-12-02T12:41:18.157Z,69.88
2018-12-02T12:43:46.513Z,69.84
2018-12-02T12:46:14.842Z,69.82
2018-12-02T12:48:43.222Z,69.64
2018-12-02T12:51:11.550Z,69.83
2018-12-02T12:53:39.895Z,69.82
2018-12-02T12:56:08.243Z,69.70
2018-12-02T12:58:36.725Z,69.88
2018-12-02T13:01:05.061Z,69.96
2018-12-02T13:03:33.655Z,69.85
2018-12-02T13:06:02.004Z,69.93
2018-12-02T13:08:30.340Z,70.17
2018-12-02T13:10:58.721Z,70.18
2018-12-02T13:13:27.077Z,69.96
2018-12-02T13:15:55.446Z,69.91
2018-12-02T13:18:23.778Z,69.81
2018-12-02T13:20:52.138Z,69.72
2018-12-02T13:23:20.630Z,69.77
2018-12-02T13:25:48.993Z,69.92
2018-12-02T13:28:17.320Z,69.85
2018-12-02T13:30:46.472Z,69.94
2018-12-02T13:33:15.504Z,70.07
2018-12-02T13:35:44.075Z,70.00
2018-12-02T13:38:12.197Z,70.01
2018-12-02T13:40:40.523Z,69.90
2018-12-02T13:43:08.890Z,70.01
2018-12-02T13:45:37.271Z,70.28
2018-12-02T13:48:05.620Z,70.29
2018-12-02T13:50:34.065Z,69.97
2018-12-02T13:53:02.442Z,70.08
2018-12-02T13:55:31.010Z,70.09
2018-12-02T13:57:59.460Z,70.23
2018-12-02T14:00:27.791Z,70.24
2018-12-02T14:02:56.163Z,70.46
2018-12-02T14:05:24.584Z,70.41
2018-12-02T14:07:52.921Z,70.47
2018-12-02T14:10:21.856Z,70.52
2018-12-02T14:12:50.289Z,70.65
2018-12-02T14:15:18.678Z,70.66
2018-12-02T14:17:47.059Z,70.73
2018-12-02T14:20:20.635Z,70.92
2018-12-02T14:22:48.826Z,71.01
2018-12-02T14:25:17.234Z,71.23
2018-12-02T14:27:45.676Z,71.36
2018-12-02T14:30:14.047Z,71.59
2018-12-02T14:32:43.164Z,71.66
2018-12-02T14:35:11.496Z,71.91
2018-12-02T14:37:40.268Z,72.00
2018-12-02T14:40:08.602Z,72.03
2018-12-02T14:42:37.274Z,72.02
2018-12-02T14:45:05.731Z,72.01
2018-12-02T14:47:34.303Z,72.28
2018-12-02T14:50:03.546Z,72.39
2018-12-02T14:52:33.434Z,72.48
2018-12-02T14:55:02.168Z,72.49
2018-12-02T14:57:30.578Z,72.60
2018-12-02T14:59:59.057Z,72.60
2018-12-02T15:02:27.460Z,72.55
2018-12-02T15:04:56.618Z,72.37
2018-12-02T15:07:25.105Z,72.55
2018-12-02T15:09:53.567Z,72.71
2018-12-02T15:12:22.001Z,72.67
2018-12-02T15:14:52.241Z,72.58
2018-12-02T15:17:21.277Z,72.79
2018-12-02T15:19:50.767Z,72.92
2018-12-02T15:22:19.229Z,72.67
2018-12-02T15:24:47.580Z,72.60
2018-12-02T15:27:16.562Z,72.65
2018-12-02T15:29:44.914Z,72.57
2018-12-02T15:32:13.457Z,72.49
2018-12-02T15:34:41.847Z,72.38
2018-12-02T15:37:10.416Z,72.65
2018-12-02T15:39:38.633Z,72.50
2018-12-02T15:42:07.385Z,72.70
2018-12-02T15:44:37.110Z,72.54
2018-12-02T15:47:05.549Z,72.47
2018-12-02T15:49:34.093Z,72.49
2018-12-02T15:52:02.725Z,72.50
2018-12-02T15:54:31.060Z,72.69
2018-12-02T15:56:59.420Z,72.76
2018-12-02T15:59:30.570Z,72.64
2018-12-02T16:02:00.084Z,72.60
2018-12-02T16:04:36.858Z,72.53
2018-12-02T16:07:06.075Z,72.58
2018-12-02T16:09:35.543Z,72.48
2018-12-02T16:12:04.933Z,72.43
2018-12-02T16:14:33.446Z,72.33
2018-12-02T16:17:01.882Z,72.15
2018-12-02T16:19:30.456Z,72.17
2018-12-02T16:21:59.393Z,72.06
2018-12-02T16:24:28.234Z,72.04
2018-12-02T16:26:56.645Z,72.14
2018-12-02T16:29:24.867Z,72.26
2018-12-02T16:31:54.103Z,72.20
2018-12-02T16:34:22.804Z,72.10
2018-12-02T16:36:51.179Z,72.38
2018-12-02T16:39:19.738Z,72.57
2018-12-02T16:41:47.978Z,72.59
2018-12-02T16:44:16.308Z,72.49
2018-12-02T16:46:44.970Z,72.47
2018-12-02T16:49:13.884Z,72.45
2018-12-02T16:51:42.752Z,72.44
2018-12-02T16:54:11.164Z,72.67
2018-12-02T16:56:39.563Z,72.65
2018-12-02T16:59:07.960Z,72.62
2018-12-02T17:01:36.510Z,72.63
2018-12-02T17:04:04.983Z,72.62
2018-12-02T17:06:33.334Z,72.74
2018-12-02T17:09:01.892Z,72.58
2018-12-02T17:11:30.250Z,72.56
2018-12-02T17:13:58.665Z,72.59
2018-12-02T17:16:27.181Z,72.46
2018-12-02T17:18:55.519Z,72.44
2018-12-02T17:21:24.015Z,72.52
2018-12-02T17:23:52.475Z,72.36
2018-12-02T17:26:20.821Z,72.29
2018-12-02T17:28:49.235Z,71.95
2018-12-02T17:31:17.699Z,72.00
2018-12-02T17:33:46.039Z,72.28
2018-12-02T17:36:14.438Z,72.29
2018-12-02T17:38:42.949Z,72.46
2018-12-02T17:41:11.278Z,72.48
2018-12-02T17:43:43.828Z,72.40
2018-12-02T17:46:12.292Z,72.41
2018-12-02T17:48:40.854Z,72.60
2018-12-02T17:51:09.221Z,72.54
2018-12-02T17:53:37.642Z,72.61
2018-12-02T17:56:06.357Z,72.52
2018-12-02T17:58:34.735Z,72.59
2018-12-02T18:01:04.472Z,72.56
2018-12-02T18:03:32.712Z,72.72
2018-12-02T18:06:01.094Z,72.78
2018-12-02T18:08:29.719Z,72.86
2018-12-02T18:10:58.437Z,72.94
2018-12-02T18:13:29.097Z,72.92
2018-12-02T18:15:57.631Z,72.97
2018-12-02T18:18:26.135Z,73.05
2018-12-02T18:20:54.692Z,73.24
2018-12-02T18:23:23.334Z,73.27
2018-12-02T18:25:51.716Z,73.35
2018-12-02T18:28:20.743Z,73.39
2018-12-02T18:30:50.919Z,73.43
2018-12-02T18:33:19.888Z,73.44
2018-12-02T18:35:48.411Z,73.52
2018-12-02T18:38:17.800Z,73.48
2018-12-02T18:40:46.140Z,73.58
2018-12-02T18:43:14.558Z,73.55
2018-12-02T18:45:43.669Z,73.55
2018-12-02T18:48:12.237Z,73.91
2018-12-02T18:50:40.637Z,73.89
2018-12-02T18:53:08.972Z,73.93
2018-12-02T18:55:37.339Z,73.89
2018-12-02T18:58:05.668Z,73.89
2018-12-02T19:00:34.062Z,73.96
2018-12-02T19:03:02.466Z,74.06
2018-12-02T19:05:30.810Z,74.00
2018-12-02T19:07:59.256Z,73.84
2018-12-02T19:10:27.665Z,73.75
2018-12-02T19:12:56.339Z,73.82
2018-12-02T19:15:24.663Z,73.85
2018-12-02T19:17:52.994Z,73.99
2018-12-02T19:20:21.333Z,74.09
2018-12-02T19:22:49.714Z,73.99
2018-12-02T19:25:18.265Z,73.99
2018-12-02T19:27:46.900Z,74.11
2018-12-02T19:30:15.442Z,73.93
2018-12-02T19:32:43.092Z,74.13
2018-12-02T19:35:12.012Z,74.32
2018-12-02T19:37:41.082Z,74.49
2018-12-02T19:40:09.431Z,74.56
2018-12-02T19:42:37.857Z,74.53
2018-12-02T19:45:06.267Z,74.66
2018-12-02T19:47:34.599Z,74.69
2018-12-02T19:50:02.948Z,74.68
2018-12-02T19:52:31.278Z,74.37
2018-12-02T19:54:59.820Z,74.53
2018-12-02T19:57:28.309Z,74.53
2018-12-02T19:59:56.726Z,74.69
2018-12-02T20:02:25.304Z,74.67
2018-12-02T20:04:53.421Z,74.79
2018-12-02T20:07:21.761Z,74.65
2018-12-02T20:09:50.141Z,74.80
2018-12-02T20:12:18.614Z,74.84
2018-12-02T20:14:47.111Z,74.89
2018-12-02T20:17:15.669Z,75.08
2018-12-02T20:19:43.996Z,74.89
2018-12-02T20:22:13.592Z,74.98
2018-12-02T20:24:41.945Z,75.12
2018-12-02T20:27:10.291Z,75.15
2018-12-02T20:29:38.714Z,75.09
2018-12-02T20:32:07.093Z,75.19
2018-12-02T20:34:35.380Z,75.79
2018-12-02T20:37:03.767Z,76.24
2018-12-02T20:39:32.406Z,76.46
2018-12-02T20:42:00.737Z,76.58
2018-12-02T20:44:29.085Z,76.72
2018-12-02T20:46:57.932Z,76.69
2018-12-02T20:49:26.502Z,76.95
2018-12-02T20:51:54.613Z,77.51
2018-12-02T20:54:22.947Z,77.69
2018-12-02T20:56:51.285Z,77.77
2018-12-02T20:59:19.728Z,78.44
2018-12-02T21:01:48.104Z,78.48
2018-12-02T21:04:16.507Z,78.97
2018-12-02T21:06:45.044Z,79.11
2018-12-02T21:09:13.693Z,79.10
2018-12-02T21:11:42.054Z,78.81
2018-12-02T21:14:10.517Z,78.97
2018-12-02T21:16:38.863Z,79.26
2018-12-02T21:19:07.609Z,79.26
2018-12-02T21:21:37.281Z,79.65
2018-12-02T21:24:04.704Z,79.25
2018-12-02T21:26:33.102Z,79.75
2018-12-02T21:29:01.779Z,79.95
2018-12-02T21:31:30.412Z,79.87
2018-12-02T21:33:58.657Z,80.24
2018-12-02T21:36:26.988Z,80.29
2018-12-02T21:38:55.473Z,80.09
2018-12-02T21:41:24.715Z,80.41
2018-12-02T21:43:53.083Z,80.44
2018-12-02T21:46:21.422Z,80.30
2018-12-02T21:48:49.840Z,80.27
2018-12-02T21:51:18.192Z,80.42
2018-12-02T21:53:46.561Z,80.30
2018-12-02T21:56:14.921Z,80.48
2018-12-02T21:58:44.175Z,80.58
2018-12-02T22:01:12.507Z,80.80
2018-12-02T22:03:40.989Z,81.06
2018-12-02T22:06:09.348Z,81.18
2018-12-02T22:08:38.073Z,81.02
2018-12-02T22:11:06.183Z,81.33
2018-12-02T22:13:35.156Z,81.35
2018-12-02T22:16:03.700Z,81.27
2018-12-02T22:18:32.016Z,81.05
2018-12-02T22:21:00.583Z,81.49
2018-12-02T22:23:28.952Z,81.62
2018-12-02T22:25:57.606Z,81.71
2018-12-02T22:28:27.048Z,81.27
2018-12-02T22:30:56.729Z,81.27
2018-12-02T22:33:25.407Z,81.49
2018-12-02T22:35:53.726Z,81.46
2018-12-02T22:38:22.103Z,81.25
2018-12-02T22:40:50.571Z,80.97
2018-12-02T22:43:19.026Z,81.29
2018-12-02T22:45:47.546Z,81.46
2018-12-02T22:48:15.950Z,81.37
2018-12-02T22:50:44.433Z,81.31
2018-12-02T22:53:12.893Z,81.60
2018-12-02T22:55:41.267Z,81.63
2018-12-02T22:58:09.605Z,81.55
2018-12-02T23:00:38.109Z,81.65
2018-12-02T23:03:06.467Z,81.57
2018-12-02T23:05:34.799Z,81.38
2018-12-02T23:08:03.145Z,81.46
2018-12-02T23:10:31.475Z,81.71
2018-12-02T23:12:59.806Z,81.53
2018-12-02T23:15:28.140Z,81.67
2018-12-02T23:17:56.538Z,81.80
2018-12-02T23:20:24.996Z,81.85
2018-12-02T23:22:53.311Z,81.81
2018-12-02T23:25:21.719Z,81.74
2018-12-02T23:27:50.056Z,81.84
2018-12-02T23:30:18.392Z,81.81
2018-12-02T23:32:46.712Z,81.92
2018-12-02T23:35:15.113Z,81.78
2018-12-02T23:37:43.441Z,81.75
2018-12-02T23:40:11.738Z,81.80
2018-12-02T23:42:40.091Z,82.01
2018-12-02T23:45:08.509Z,82.03
2018-12-02T23:47:36.872Z,81.81
2018-12-02T23:50:05.265Z,82.18
2018-12-02T23:52:33.604Z,82.44
2018-12-02T23:55:01.925Z,82.18
2018-12-02T23:57:30.272Z,82.27
2018-12-02T23:59:58.618Z,82.21
